HEBA/HBE METAR and TAF weather

Enter ICAO airport designator
Station Type Date Time Source
HEBA METAR 2019/02/23 02:00 UTC NOAA

HEBA 230200Z 19005KT 6000 NSC 09/08 Q1017 NOSIG


Station Type Date Time Source
HEBA Decoded METAR 2019/02/23 02:00 UTC NOAA

Alexandria Borg El Arab, Egypt (HEBA) 31-31N 030-10E
Feb 22, 2019 - 09:00 PM EST / 2019.02.23 0200 UTC
Wind: from the S (190 degrees) at 6 MPH (5 KT):0
Visibility: 3 mile(s):0
Temperature: 48 F (9 C)
Dew Point: 46 F (8 C)
Relative Humidity: 93%
Pressure (altimeter): 30.03 in. Hg (1017 hPa)
ob: HEBA 230200Z 19005KT 6000 NSC 09/08 Q1017 NOSIG
cycle: 2

Station Type Date Time Source
HEBA TAF 2019/02/22 18:27 UTC NOAA

TAF HEBA 221700Z 2218/2324 31010KT 9999 SCT020
BECMG 2221/2223 21006KT
TEMPO 2303/2306 VRB03KT 3000 BR NSC


Example: see airport list